createdAt,value
2023-02-17T00:01:39.010Z,17.50
2023-02-17T00:04:07.397Z,22.50
2023-02-17T00:06:35.703Z,20.50
2023-02-17T00:09:04.720Z,18.75
2023-02-17T00:11:33.147Z,23.50
2023-02-17T00:14:01.858Z,20.25
2023-02-17T00:16:30.513Z,20.25
2023-02-17T00:19:01.675Z,20.25
2023-02-17T00:21:32.879Z,21.50
2023-02-17T00:24:01.565Z,24.00
2023-02-17T00:26:30.155Z,20.75
2023-02-17T00:29:00.191Z,23.75
2023-02-17T00:31:28.527Z,21.25
2023-02-17T00:33:57.817Z,26.25
2023-02-17T00:36:27.190Z,26.00
2023-02-17T00:38:57.933Z,23.00
2023-02-17T00:41:28.391Z,25.75
2023-02-17T00:43:57.039Z,21.75
2023-02-17T00:46:26.160Z,23.00
2023-02-17T00:48:55.267Z,25.50
2023-02-17T00:51:24.028Z,24.00
2023-02-17T00:53:52.909Z,24.50
2023-02-17T00:56:21.229Z,26.00
2023-02-17T00:58:49.608Z,20.75
2023-02-17T01:01:17.965Z,30.25
2023-02-17T01:03:46.392Z,25.75
2023-02-17T01:06:23.436Z,21.75
2023-02-17T01:08:51.846Z,23.50
2023-02-17T01:11:22.396Z,22.75
2023-02-17T01:13:51.148Z,20.25
2023-02-17T01:16:23.631Z,20.50
2023-02-17T01:18:52.298Z,23.50
2023-02-17T01:21:25.565Z,25.00
2023-02-17T01:23:56.407Z,21.75
2023-02-17T01:26:27.670Z,20.50
2023-02-17T01:28:56.942Z,18.75
2023-02-17T01:31:28.193Z,22.50
2023-02-17T01:33:59.434Z,18.75
2023-02-17T01:36:28.045Z,19.25
2023-02-17T01:38:57.176Z,20.00
2023-02-17T01:41:28.518Z,21.00
2023-02-17T01:44:05.996Z,17.00
2023-02-17T01:46:36.255Z,19.50
2023-02-17T01:49:17.390Z,20.00
2023-02-17T01:51:48.559Z,21.00
2023-02-17T01:54:28.264Z,17.75
2023-02-17T01:57:00.866Z,20.00
2023-02-17T01:59:31.368Z,20.00
2023-02-17T02:02:04.084Z,22.00
2023-02-17T02:04:37.451Z,20.50
2023-02-17T02:07:11.617Z,21.00
2023-02-17T02:09:52.012Z,20.00
2023-02-17T02:12:28.230Z,23.25
2023-02-17T02:15:01.617Z,20.25
2023-02-17T02:17:54.255Z,19.75
2023-02-17T02:20:40.500Z,19.00
2023-02-17T02:23:35.796Z,20.50
2023-02-17T02:26:24.800Z,19.00
2023-02-17T02:29:18.556Z,22.25
2023-02-17T02:31:46.850Z,20.75
2023-02-17T02:34:35.541Z,22.00
2023-02-17T02:37:08.937Z,21.50
2023-02-17T02:39:43.958Z,21.25
2023-02-17T02:42:17.390Z,21.75
2023-02-17T02:44:45.664Z,23.75
2023-02-17T02:47:44.648Z,25.00
2023-02-17T02:50:35.041Z,21.25
2023-02-17T02:53:29.958Z,21.50
2023-02-17T02:56:14.979Z,23.25
2023-02-17T02:58:55.988Z,26.50
2023-02-17T03:01:36.454Z,23.00
2023-02-17T03:04:14.648Z,23.00
2023-02-17T03:06:53.982Z,21.75
2023-02-17T03:09:29.725Z,21.50
2023-02-17T03:11:59.838Z,27.00
2023-02-17T03:14:29.804Z,19.25
2023-02-17T03:17:01.181Z,18.00
2023-02-17T03:19:30.035Z,21.25
2023-02-17T03:22:26.305Z,17.50
2023-02-17T03:24:54.818Z,21.75
2023-02-17T03:27:23.135Z,21.25
2023-02-17T03:29:51.427Z,19.25
2023-02-17T03:32:19.806Z,18.00
2023-02-17T03:34:48.108Z,20.00
2023-02-17T03:37:16.437Z,20.00
2023-02-17T03:39:44.786Z,19.50
2023-02-17T03:42:13.096Z,19.25
2023-02-17T03:44:41.417Z,20.75
2023-02-17T03:47:09.736Z,17.75
2023-02-17T03:49:38.019Z,17.25
2023-02-17T03:52:06.752Z,18.00
2023-02-17T03:54:35.135Z,16.75
2023-02-17T03:57:03.629Z,19.25
2023-02-17T04:00:07.216Z,18.00
2023-02-17T04:02:35.527Z,16.75
2023-02-17T04:05:04.025Z,18.00
2023-02-17T04:07:32.366Z,18.00
2023-02-17T04:10:00.741Z,17.50
2023-02-17T04:12:29.055Z,20.25
2023-02-17T04:14:57.369Z,19.00
2023-02-17T04:17:25.706Z,18.25
2023-02-17T04:19:54.015Z,19.50
2023-02-17T04:22:22.369Z,20.00
2023-02-17T04:24:50.684Z,16.50
2023-02-17T04:27:18.989Z,17.00
2023-02-17T04:29:47.300Z,16.75
2023-02-17T04:32:15.914Z,15.75
2023-02-17T04:34:44.197Z,17.25
2023-02-17T04:37:12.501Z,17.00
2023-02-17T04:39:41.086Z,15.00
2023-02-17T04:42:09.463Z,13.00
2023-02-17T04:44:37.744Z,17.50
2023-02-17T04:47:06.080Z,16.25
2023-02-17T04:49:34.453Z,14.50
2023-02-17T04:52:02.939Z,17.00
2023-02-17T04:54:31.209Z,17.25
2023-02-17T04:56:59.507Z,18.00
2023-02-17T04:59:27.821Z,17.00
2023-02-17T05:01:56.110Z,17.50
2023-02-17T05:04:24.519Z,16.00
2023-02-17T05:06:52.882Z,17.25
2023-02-17T05:09:21.655Z,14.25
2023-02-17T05:11:49.960Z,20.00
2023-02-17T05:14:18.422Z,17.75
2023-02-17T05:16:46.886Z,17.75
2023-02-17T05:19:15.169Z,17.00
2023-02-17T05:21:43.491Z,20.50
2023-02-17T05:24:11.869Z,16.25
2023-02-17T05:26:40.240Z,18.25
2023-02-17T05:29:08.538Z,16.00
2023-02-17T05:31:36.981Z,17.25
2023-02-17T05:34:05.516Z,18.50
2023-02-17T05:36:33.819Z,17.25
2023-02-17T05:39:02.120Z,15.00
2023-02-17T05:41:30.687Z,15.00
2023-02-17T05:43:59.061Z,16.25
2023-02-17T05:46:27.397Z,16.25
2023-02-17T05:48:55.921Z,17.00
2023-02-17T05:51:24.218Z,17.50
2023-02-17T05:53:52.561Z,17.75
2023-02-17T05:56:20.876Z,19.25
2023-02-17T05:58:49.150Z,16.50
2023-02-17T06:01:17.632Z,17.00
2023-02-17T06:03:45.987Z,16.50
2023-02-17T06:06:14.556Z,13.75
2023-02-17T06:08:42.893Z,14.75
2023-02-17T06:11:11.207Z,16.25
2023-02-17T06:13:39.585Z,13.00
2023-02-17T06:16:08.378Z,14.50
2023-02-17T06:18:36.902Z,13.75
2023-02-17T06:21:05.447Z,14.75
2023-02-17T06:23:33.740Z,14.50
2023-02-17T06:26:02.067Z,14.50
2023-02-17T06:28:30.417Z,14.00
2023-02-17T06:30:58.705Z,14.75
2023-02-17T06:33:27.168Z,15.50
2023-02-17T06:35:55.488Z,14.25
2023-02-17T06:38:23.849Z,15.00
2023-02-17T06:40:52.199Z,13.75
2023-02-17T06:43:20.512Z,16.00
2023-02-17T06:45:48.925Z,16.75
2023-02-17T06:48:17.258Z,16.25
2023-02-17T06:50:45.579Z,13.75
2023-02-17T06:53:13.871Z,14.25
2023-02-17T06:55:42.161Z,17.00
2023-02-17T06:58:10.449Z,15.25
2023-02-17T07:00:38.757Z,15.25
2023-02-17T07:03:08.173Z,16.50
2023-02-17T07:05:38.060Z,13.75
2023-02-17T07:08:06.658Z,14.50
2023-02-17T07:10:35.113Z,16.00
2023-02-17T07:13:03.463Z,17.00
2023-02-17T07:15:31.807Z,15.75
2023-02-17T07:18:00.191Z,13.00
2023-02-17T07:20:28.533Z,14.00
2023-02-17T07:22:56.865Z,15.00
2023-02-17T07:25:25.173Z,15.00
2023-02-17T07:27:53.793Z,14.75
2023-02-17T07:30:22.280Z,15.00
2023-02-17T07:32:50.630Z,14.75
2023-02-17T07:35:18.958Z,15.25
2023-02-17T07:37:47.223Z,16.25
2023-02-17T07:40:15.840Z,14.25
2023-02-17T07:42:44.227Z,14.25
2023-02-17T07:45:12.548Z,13.25
2023-02-17T07:47:40.903Z,16.00
2023-02-17T07:50:10.437Z,15.00
2023-02-17T07:55:23.117Z,15.00
2023-02-17T07:57:51.497Z,13.75
2023-02-17T08:00:20.040Z,13.50
2023-02-17T08:02:48.439Z,15.25
2023-02-17T08:05:16.795Z,16.00
2023-02-17T08:07:45.081Z,16.25
2023-02-17T08:10:32.909Z,14.25
2023-02-17T08:13:19.393Z,11.50
2023-02-17T08:15:47.767Z,17.00
2023-02-17T08:18:16.127Z,14.75
2023-02-17T08:20:44.591Z,12.75
2023-02-17T08:23:13.409Z,13.50
2023-02-17T08:25:41.714Z,15.50
2023-02-17T08:28:12.620Z,13.75
2023-02-17T08:30:41.371Z,9.50
2023-02-17T08:33:09.769Z,13.50
2023-02-17T08:35:38.154Z,13.00
2023-02-17T08:38:06.492Z,12.50
2023-02-17T08:40:34.786Z,13.75
2023-02-17T08:43:03.650Z,14.00
2023-02-17T08:45:32.109Z,12.50
2023-02-17T08:48:00.752Z,12.50
2023-02-17T08:50:29.110Z,14.00
2023-02-17T08:52:57.477Z,13.50
2023-02-17T08:55:25.846Z,8.75
2023-02-17T08:57:54.919Z,13.50
2023-02-17T09:00:23.436Z,12.75
2023-02-17T09:02:51.735Z,12.50
2023-02-17T09:05:20.272Z,13.50
2023-02-17T09:07:48.590Z,11.25
2023-02-17T09:10:16.968Z,12.50
2023-02-17T09:12:45.342Z,11.00
2023-02-17T09:15:13.663Z,12.50
2023-02-17T09:17:42.678Z,13.25
2023-02-17T09:20:24.079Z,13.75
2023-02-17T09:22:53.454Z,14.75
2023-02-17T09:25:21.834Z,14.00
2023-02-17T09:27:50.360Z,12.00
2023-02-17T09:30:18.855Z,12.75
2023-02-17T09:32:47.309Z,13.75
2023-02-17T09:35:18.620Z,12.25
2023-02-17T09:37:47.552Z,12.00
2023-02-17T09:40:41.359Z,13.50
2023-02-17T09:43:33.543Z,13.75
2023-02-17T09:46:10.382Z,15.75
2023-02-17T09:48:40.908Z,15.50
2023-02-17T09:51:32.200Z,17.25
2023-02-17T09:54:20.343Z,14.25
2023-02-17T09:56:52.750Z,14.75
2023-02-17T09:59:46.133Z,13.75
2023-02-17T10:02:39.957Z,15.75
2023-02-17T10:05:12.750Z,13.25
2023-02-17T10:07:53.535Z,13.75
2023-02-17T10:10:32.370Z,18.25
2023-02-17T10:13:04.529Z,13.75
2023-02-17T10:15:40.039Z,16.75
2023-02-17T10:18:20.198Z,13.00
2023-02-17T10:20:59.435Z,14.00
2023-02-17T10:23:30.050Z,16.00
2023-02-17T10:26:35.210Z,14.75
2023-02-17T10:29:08.775Z,14.25
2023-02-17T10:31:49.139Z,12.25
2023-02-17T10:34:42.689Z,12.75
2023-02-17T10:37:16.411Z,12.75
2023-02-17T10:39:53.284Z,12.50
2023-02-17T10:42:27.257Z,13.75
2023-02-17T10:45:13.216Z,13.75
2023-02-17T10:47:42.275Z,13.50
2023-02-17T10:50:21.667Z,13.25
2023-02-17T10:52:51.785Z,15.25
2023-02-17T10:55:39.934Z,14.25
2023-02-17T10:58:25.343Z,18.00
2023-02-17T11:00:57.819Z,15.75
2023-02-17T11:03:29.816Z,18.75
2023-02-17T11:06:17.140Z,18.00
2023-02-17T11:08:53.615Z,17.50
2023-02-17T11:11:23.380Z,16.25
2023-02-17T11:14:10.109Z,17.75
2023-02-17T11:16:46.447Z,14.50
2023-02-17T11:19:26.666Z,14.00
2023-02-17T11:21:57.262Z,13.50
2023-02-17T11:24:26.342Z,15.50
2023-02-17T11:27:01.819Z,17.00
2023-02-17T11:29:30.994Z,15.75
2023-02-17T11:32:13.283Z,20.25
2023-02-17T11:34:43.922Z,17.75
2023-02-17T11:37:15.284Z,15.00
2023-02-17T11:39:46.435Z,15.00
2023-02-17T11:42:28.425Z,18.00
2023-02-17T11:45:01.787Z,17.75
2023-02-17T11:47:59.051Z,16.00
2023-02-17T11:50:51.093Z,16.25
2023-02-17T11:53:49.833Z,15.50
2023-02-17T11:56:24.607Z,18.75
2023-02-17T11:59:16.870Z,15.75
2023-02-17T12:02:09.187Z,14.75
2023-02-17T12:05:20.852Z,18.00
2023-02-17T12:08:23.164Z,18.25
2023-02-17T12:11:10.359Z,18.00
2023-02-17T12:14:01.711Z,15.00
2023-02-17T12:16:44.942Z,17.75
2023-02-17T12:19:51.503Z,15.75
2023-02-17T12:22:25.303Z,19.50
2023-02-17T12:25:22.459Z,15.50
2023-02-17T12:28:21.820Z,17.00
2023-02-17T12:30:59.287Z,17.25
2023-02-17T12:33:48.814Z,16.25
2023-02-17T12:36:19.935Z,19.25
2023-02-17T12:38:56.395Z,21.75
2023-02-17T12:41:48.379Z,16.25
2023-02-17T12:44:24.754Z,18.00
2023-02-17T12:47:02.558Z,25.50
2023-02-17T12:49:44.414Z,26.00
2023-02-17T12:52:24.393Z,29.25
2023-02-17T12:54:52.686Z,26.75
2023-02-17T12:58:04.822Z,25.75
2023-02-17T13:01:02.714Z,25.75
2023-02-17T13:03:34.315Z,23.50
2023-02-17T13:06:06.595Z,23.25
2023-02-17T13:08:56.594Z,19.50
2023-02-17T13:11:34.921Z,22.50
2023-02-17T13:14:41.408Z,24.50
2023-02-17T13:17:26.894Z,24.00
2023-02-17T13:20:13.097Z,23.00
2023-02-17T13:22:43.807Z,22.75
2023-02-17T13:25:37.613Z,24.00
2023-02-17T13:28:20.844Z,22.00
2023-02-17T13:30:53.111Z,23.75
2023-02-17T13:33:24.594Z,24.00
2023-02-17T13:35:53.323Z,24.00
2023-02-17T13:38:33.346Z,25.50
2023-02-17T13:41:05.401Z,21.50
2023-02-17T13:43:42.642Z,24.50
2023-02-17T13:46:25.347Z,24.75
2023-02-17T13:49:02.051Z,26.75
2023-02-17T13:51:33.064Z,27.25
2023-02-17T13:54:09.690Z,24.75
2023-02-17T13:56:38.101Z,27.25
2023-02-17T13:59:21.038Z,24.50
2023-02-17T14:01:50.444Z,26.50
2023-02-17T14:04:48.259Z,24.75
2023-02-17T14:07:17.652Z,26.00
2023-02-17T14:09:55.098Z,28.50
2023-02-17T14:12:25.183Z,28.00
2023-02-17T14:14:53.656Z,27.50
2023-02-17T14:17:33.445Z,24.50
2023-02-17T14:20:01.885Z,31.00
2023-02-17T14:22:32.740Z,25.00
2023-02-17T14:25:08.626Z,28.00
2023-02-17T14:27:48.163Z,27.00
2023-02-17T14:30:32.621Z,28.75
2023-02-17T14:33:06.197Z,24.50
2023-02-17T14:35:35.608Z,25.25
2023-02-17T14:38:20.905Z,28.50
2023-02-17T14:40:49.793Z,28.50
2023-02-17T14:43:18.391Z,25.00
2023-02-17T14:45:46.833Z,28.50
2023-02-17T14:48:15.243Z,24.00
2023-02-17T14:50:45.183Z,23.50
2023-02-17T14:53:22.388Z,28.25
2023-02-17T14:56:13.794Z,25.75
2023-02-17T14:58:42.221Z,27.25
2023-02-17T15:01:14.077Z,23.00
2023-02-17T15:03:42.666Z,23.25
2023-02-17T15:06:31.491Z,25.75
2023-02-17T15:09:02.472Z,24.75
2023-02-17T15:11:37.917Z,24.50
2023-02-17T15:14:06.884Z,22.75
2023-02-17T15:16:35.320Z,25.25
2023-02-17T15:19:03.674Z,25.00
2023-02-17T15:21:34.755Z,28.50
2023-02-17T15:24:04.545Z,26.25
2023-02-17T15:26:32.854Z,27.75
2023-02-17T15:29:01.385Z,27.00
2023-02-17T15:31:33.472Z,27.75
2023-02-17T15:34:02.510Z,29.00
2023-02-17T15:36:30.874Z,27.75
2023-02-17T15:38:59.225Z,29.00
2023-02-17T15:41:31.180Z,28.25
2023-02-17T15:44:00.055Z,27.50
2023-02-17T15:46:33.779Z,26.50
2023-02-17T15:49:02.200Z,27.75
2023-02-17T15:51:30.532Z,23.75
2023-02-17T15:53:59.044Z,27.50
2023-02-17T15:56:31.244Z,24.25
2023-02-17T15:59:10.186Z,24.25
2023-02-17T16:01:38.564Z,26.75
2023-02-17T16:04:11.121Z,24.00
2023-02-17T16:06:40.081Z,26.25
2023-02-17T16:09:09.139Z,28.25
2023-02-17T16:11:48.552Z,27.75
2023-02-17T16:14:33.287Z,28.50
2023-02-17T16:17:02.254Z,28.00
2023-02-17T16:19:30.904Z,29.25
2023-02-17T16:21:59.253Z,27.75
2023-02-17T16:24:27.541Z,29.00
2023-02-17T16:26:57.273Z,29.00
2023-02-17T16:29:25.773Z,30.00
2023-02-17T16:31:54.174Z,28.50
2023-02-17T16:34:24.732Z,30.00
2023-02-17T16:37:00.421Z,28.75
2023-02-17T16:39:28.801Z,30.25
2023-02-17T16:41:57.131Z,29.75
2023-02-17T16:44:25.573Z,30.75
2023-02-17T16:46:56.596Z,31.00
2023-02-17T16:49:34.982Z,31.00
2023-02-17T16:52:09.059Z,29.50
2023-02-17T16:54:37.477Z,28.25
2023-02-17T16:57:05.807Z,29.25
2023-02-17T16:59:34.084Z,29.00
2023-02-17T17:02:02.672Z,29.00
2023-02-17T17:04:30.958Z,29.00
2023-02-17T17:06:59.262Z,29.25
2023-02-17T17:09:27.593Z,28.75
2023-02-17T17:11:55.949Z,26.00
2023-02-17T17:14:24.516Z,29.25
2023-02-17T17:16:57.007Z,30.25
2023-02-17T17:19:25.770Z,23.50
2023-02-17T17:21:54.264Z,30.50
2023-02-17T17:24:22.956Z,29.00
2023-02-17T17:26:52.492Z,27.50
2023-02-17T17:29:21.611Z,28.00
2023-02-17T17:31:50.512Z,29.50
2023-02-17T17:34:18.952Z,28.00
2023-02-17T17:36:48.940Z,29.00
2023-02-17T17:39:20.286Z,30.00
2023-02-17T17:41:49.272Z,29.00
2023-02-17T17:44:18.988Z,31.00
2023-02-17T17:46:47.382Z,30.50
2023-02-17T17:49:18.866Z,29.25
2023-02-17T17:51:47.694Z,32.50
2023-02-17T17:54:16.131Z,32.25
2023-02-17T17:56:45.000Z,31.50
2023-02-17T17:59:15.048Z,34.25
2023-02-17T18:01:45.634Z,30.25
2023-02-17T18:04:14.850Z,34.00
2023-02-17T18:06:50.068Z,32.75
2023-02-17T18:09:31.981Z,31.00
2023-02-17T18:12:03.997Z,33.00
2023-02-17T18:14:33.011Z,31.00
2023-02-17T18:17:01.797Z,34.25
2023-02-17T18:19:31.798Z,35.00
2023-02-17T18:22:00.164Z,31.75
2023-02-17T18:24:29.199Z,34.25
2023-02-17T18:26:57.666Z,34.00
2023-02-17T18:29:26.294Z,33.50
2023-02-17T18:31:54.852Z,33.75
2023-02-17T18:34:23.309Z,34.00
2023-02-17T18:36:51.621Z,32.00
2023-02-17T18:39:19.904Z,31.50
2023-02-17T18:41:48.229Z,34.75
2023-02-17T18:44:16.601Z,33.75
2023-02-17T18:46:46.994Z,34.25
2023-02-17T18:49:15.387Z,36.50
2023-02-17T18:51:43.756Z,31.00
2023-02-17T18:54:13.776Z,32.00
2023-02-17T18:56:42.094Z,34.25
2023-02-17T18:59:10.395Z,29.25
2023-02-17T19:01:41.765Z,30.25
2023-02-17T19:04:14.016Z,31.00
2023-02-17T19:06:42.600Z,31.75
2023-02-17T19:09:11.107Z,31.25
2023-02-17T19:11:39.444Z,31.25
2023-02-17T19:14:07.805Z,32.50
2023-02-17T19:16:36.252Z,34.25
2023-02-17T19:19:05.161Z,32.75
2023-02-17T19:21:36.173Z,31.00
2023-02-17T19:24:04.914Z,33.25
2023-02-17T19:26:33.251Z,33.75
2023-02-17T19:29:01.513Z,33.75
2023-02-17T19:31:30.009Z,32.75
2023-02-17T19:33:58.430Z,32.50
2023-02-17T19:36:26.814Z,31.25
2023-02-17T19:38:57.848Z,31.75
2023-02-17T19:41:26.633Z,33.75
2023-02-17T19:43:54.959Z,31.50
2023-02-17T19:46:25.310Z,33.00
2023-02-17T19:48:53.708Z,33.25
2023-02-17T19:51:22.276Z,31.75
2023-02-17T19:53:50.616Z,31.75
2023-02-17T19:56:22.419Z,35.25
2023-02-17T19:58:50.976Z,31.50
2023-02-17T20:01:28.647Z,31.00
2023-02-17T20:03:58.648Z,32.75
2023-02-17T20:06:31.124Z,30.00
2023-02-17T20:09:02.843Z,33.75
2023-02-17T20:11:32.793Z,32.25
2023-02-17T20:14:02.535Z,30.75
2023-02-17T20:16:31.977Z,29.00
2023-02-17T20:19:02.836Z,33.00
2023-02-17T20:21:33.564Z,31.25
2023-02-17T20:24:02.361Z,31.25
2023-02-17T20:26:33.625Z,32.00
2023-02-17T20:29:03.155Z,30.50
2023-02-17T20:31:32.002Z,33.50
2023-02-17T20:34:00.574Z,32.00
2023-02-17T20:36:28.971Z,31.75
2023-02-17T20:38:57.249Z,31.75
2023-02-17T20:41:26.233Z,31.75
2023-02-17T20:43:54.559Z,34.00
2023-02-17T20:46:28.677Z,32.25
2023-02-17T20:48:57.702Z,31.00
2023-02-17T20:51:26.367Z,35.00
2023-02-17T20:53:54.648Z,32.00
2023-02-17T20:56:25.014Z,32.25
2023-02-17T20:58:54.392Z,31.50
2023-02-17T21:01:22.733Z,31.50
2023-02-17T21:03:51.043Z,27.00
2023-02-17T21:06:23.553Z,32.25
2023-02-17T21:08:54.790Z,31.00
2023-02-17T21:11:23.571Z,30.00
2023-02-17T21:13:51.923Z,28.50
2023-02-17T21:16:23.994Z,28.00
2023-02-17T21:18:52.371Z,28.50
2023-02-17T21:21:21.373Z,30.75
2023-02-17T21:23:49.855Z,32.00
2023-02-17T21:26:18.820Z,28.25
2023-02-17T21:28:47.856Z,32.25
2023-02-17T21:31:17.651Z,29.75
2023-02-17T21:33:46.251Z,29.50
2023-02-17T21:36:17.362Z,32.00
2023-02-17T21:38:45.944Z,28.75
2023-02-17T21:41:20.938Z,31.00
2023-02-17T21:44:07.999Z,31.00
2023-02-17T21:46:38.252Z,28.75
2023-02-17T21:49:06.537Z,30.50
2023-02-17T21:51:34.843Z,29.00
2023-02-17T21:54:03.159Z,30.00
2023-02-17T21:56:31.471Z,31.00
2023-02-17T21:59:00.054Z,29.25
2023-02-17T22:01:29.174Z,30.75
2023-02-17T22:03:58.742Z,30.75
2023-02-17T22:06:30.162Z,31.75
2023-02-17T22:08:59.933Z,29.00
2023-02-17T22:11:36.013Z,29.00
2023-02-17T22:14:07.843Z,27.75
2023-02-17T22:16:37.359Z,29.00
2023-02-17T22:19:07.678Z,30.50
2023-02-17T22:21:36.158Z,29.00
2023-02-17T22:24:04.999Z,28.50
2023-02-17T22:26:33.392Z,29.75
2023-02-17T22:29:01.700Z,29.50
2023-02-17T22:31:31.704Z,28.50
2023-02-17T22:34:03.352Z,29.25
2023-02-17T22:36:35.744Z,29.00
2023-02-17T22:39:06.224Z,28.25
2023-02-17T22:41:35.970Z,26.25
2023-02-17T22:44:04.988Z,29.25
2023-02-17T22:46:33.399Z,27.50
2023-02-17T22:49:02.480Z,28.25
2023-02-17T22:51:38.171Z,26.00
2023-02-17T22:54:08.284Z,27.50
2023-02-17T22:56:37.319Z,24.00
2023-02-17T22:59:06.594Z,29.25
2023-02-17T23:01:37.281Z,27.00
2023-02-17T23:04:06.867Z,26.25
2023-02-17T23:06:38.322Z,30.00
2023-02-17T23:09:09.618Z,23.75
2023-02-17T23:11:54.664Z,23.25
2023-02-17T23:14:33.786Z,25.50
2023-02-17T23:17:05.251Z,26.25
2023-02-17T23:19:33.890Z,26.00
2023-02-17T23:22:06.612Z,24.25
2023-02-17T23:24:35.335Z,26.50
2023-02-17T23:27:04.769Z,29.00
2023-02-17T23:29:34.605Z,25.75
2023-02-17T23:32:02.998Z,24.00
2023-02-17T23:34:31.763Z,25.75
2023-02-17T23:37:00.163Z,21.50
2023-02-17T23:39:28.663Z,28.50
2023-02-17T23:41:57.166Z,25.25
2023-02-17T23:44:25.607Z,26.75
2023-02-17T23:46:53.905Z,29.25
2023-02-17T23:49:22.291Z,31.00
2023-02-17T23:51:50.616Z,29.25
2023-02-17T23:54:19.013Z,31.75
2023-02-17T23:56:47.286Z,33.25
2023-02-17T23:59:15.649Z,29.00
